createdAt,value
2018-03-01T00:00:22.289Z,1012.22
2018-03-01T00:01:22.255Z,1012.09
2018-03-01T00:02:22.239Z,1012.17
2018-03-01T00:03:22.199Z,1012.20
2018-03-01T00:04:22.171Z,1012.21
2018-03-01T00:05:22.135Z,1012.32
2018-03-01T00:06:22.091Z,1012.24
2018-03-01T00:07:22.067Z,1012.20
2018-03-01T00:08:22.021Z,1012.08
2018-03-01T00:09:22.001Z,1012.08
2018-03-01T00:10:21.958Z,1012.11
2018-03-01T00:11:21.934Z,1012.11
2018-03-01T00:12:21.903Z,1012.06
2018-03-01T00:13:21.868Z,1012.09
2018-03-01T00:14:21.835Z,1012.12
2018-03-01T00:15:21.801Z,1012.09
2018-03-01T00:16:21.756Z,1012.07
2018-03-01T00:17:21.733Z,1012.05
2018-03-01T00:18:21.691Z,1012.01
2018-03-01T00:19:21.658Z,1012.05
2018-03-01T00:20:21.640Z,1011.99
2018-03-01T00:21:21.591Z,1011.97
2018-03-01T00:22:21.567Z,1012.03
2018-03-01T00:23:21.526Z,1012.06
2018-03-01T00:24:21.504Z,1012.07
2018-03-01T00:25:21.473Z,1012.03
2018-03-01T00:26:21.436Z,1012.07
2018-03-01T00:27:21.405Z,1012.06
2018-03-01T00:28:21.369Z,1012.10
2018-03-01T00:29:21.335Z,1012.08
2018-03-01T00:30:21.299Z,1011.98
2018-03-01T00:31:21.258Z,1012.03
2018-03-01T00:32:21.237Z,1012.10
2018-03-01T00:33:21.197Z,1012.10
2018-03-01T00:34:21.163Z,1011.90
2018-03-01T00:35:21.128Z,1011.99
2018-03-01T00:36:21.091Z,1012.03
2018-03-01T00:37:21.072Z,1011.96
2018-03-01T00:38:21.028Z,1012.03
2018-03-01T00:39:20.994Z,1012.03
2018-03-01T00:40:20.961Z,1012.05
2018-03-01T00:41:20.928Z,1012.06
2018-03-01T00:42:20.894Z,1012.05
2018-03-01T00:43:20.863Z,1012.00
2018-03-01T00:44:20.840Z,1012.02
2018-03-01T00:45:20.794Z,1012.03
2018-03-01T00:46:20.777Z,1011.96
2018-03-01T00:47:20.730Z,1011.86
2018-03-01T00:48:20.696Z,1011.89
2018-03-01T00:49:20.666Z,1011.79
2018-03-01T00:50:20.641Z,1011.84
2018-03-01T00:51:20.607Z,1011.83
2018-03-01T00:52:20.562Z,1011.82
2018-03-01T00:53:20.546Z,1011.92
2018-03-01T00:54:20.507Z,1011.85
2018-03-01T00:55:20.467Z,1011.79
2018-03-01T00:56:20.428Z,1011.80
2018-03-01T00:57:20.398Z,1011.76
2018-03-01T00:58:20.364Z,1011.75
2018-03-01T00:59:20.342Z,1011.77
2018-03-01T01:00:20.321Z,1011.75
2018-03-01T01:01:20.278Z,1011.70
2018-03-01T01:02:20.244Z,1011.71
2018-03-01T01:03:20.194Z,1011.73
2018-03-01T01:04:20.174Z,1011.72
2018-03-01T01:05:20.131Z,1011.67
2018-03-01T01:06:20.110Z,1011.66
2018-03-01T01:07:20.075Z,1011.69
2018-03-01T01:08:20.042Z,1011.65
2018-03-01T01:09:19.999Z,1011.72
2018-03-01T01:10:19.965Z,1011.64
2018-03-01T01:11:19.933Z,1011.69
2018-03-01T01:12:19.929Z,1011.71
2018-03-01T01:13:19.876Z,1011.65
2018-03-01T01:14:19.832Z,1011.65
2018-03-01T01:15:19.797Z,1011.64
2018-03-01T01:16:19.767Z,1011.65
2018-03-01T01:17:19.732Z,1011.63
2018-03-01T01:18:19.699Z,1011.52
2018-03-01T01:19:19.674Z,1011.60
2018-03-01T01:20:19.636Z,1011.65
2018-03-01T01:21:19.611Z,1011.63
2018-03-01T01:22:19.578Z,1011.62
2018-03-01T01:23:19.535Z,1011.59
2018-03-01T01:24:19.523Z,1011.54
2018-03-01T01:25:19.468Z,1011.57
2018-03-01T01:26:19.435Z,1011.58
2018-03-01T01:27:19.400Z,1011.59
2018-03-01T01:28:19.366Z,1011.64
2018-03-01T01:29:19.334Z,1011.55
2018-03-01T01:30:19.313Z,1011.57
2018-03-01T01:31:19.282Z,1011.51
2018-03-01T01:32:19.246Z,1011.45
2018-03-01T01:33:19.201Z,1011.53
2018-03-01T01:34:19.170Z,1011.55
2018-03-01T01:35:19.149Z,1011.49
2018-03-01T01:36:19.103Z,1011.46
2018-03-01T01:37:19.074Z,1011.48
2018-03-01T01:38:19.105Z,1011.49
2018-03-01T01:39:19.017Z,1011.42
2018-03-01T01:40:18.970Z,1011.36
2018-03-01T01:41:18.952Z,1011.47
2018-03-01T01:42:18.925Z,1011.31
2018-03-01T01:43:18.881Z,1011.33
2018-03-01T01:44:18.837Z,1011.33
2018-03-01T01:45:18.817Z,1011.35
2018-03-01T01:46:18.771Z,1011.40
2018-03-01T01:47:18.757Z,1011.35
2018-03-01T01:48:18.717Z,1011.27
2018-03-01T01:49:18.684Z,1011.23
2018-03-01T01:50:18.651Z,1011.27
2018-03-01T01:51:18.605Z,1011.23
2018-03-01T01:52:18.587Z,1011.33
2018-03-01T01:53:18.539Z,1011.27
2018-03-01T01:54:18.511Z,1011.25
2018-03-01T01:55:18.472Z,1011.22
2018-03-01T01:56:18.441Z,1011.23
2018-03-01T01:57:18.408Z,1011.17
2018-03-01T01:58:18.374Z,1011.19
2018-03-01T01:59:18.352Z,1011.23
2018-03-01T02:00:18.312Z,1011.21
2018-03-01T02:01:18.285Z,1011.26
2018-03-01T02:02:18.242Z,1011.24
2018-03-01T02:03:18.209Z,1011.18
2018-03-01T02:04:18.179Z,1011.18
2018-03-01T02:05:18.143Z,1011.17
2018-03-01T02:06:18.122Z,1011.17
2018-03-01T02:07:18.079Z,1011.25
2018-03-01T02:08:18.041Z,1011.21
2018-03-01T02:09:18.009Z,1011.18
2018-03-01T02:10:17.989Z,1011.11
2018-03-01T02:11:17.956Z,1011.17
2018-03-01T02:12:17.910Z,1011.05
2018-03-01T02:13:17.889Z,1011.12
2018-03-01T02:14:17.855Z,1011.08
2018-03-01T02:15:17.814Z,1011.07
2018-03-01T02:16:17.776Z,1010.85
2018-03-01T02:17:17.747Z,1011.01
2018-03-01T02:18:17.709Z,1010.94
2018-03-01T02:19:17.689Z,1010.96
2018-03-01T02:20:17.645Z,1010.82
2018-03-01T02:21:17.623Z,1010.86
2018-03-01T02:22:17.579Z,1010.74
2018-03-01T02:23:17.545Z,1010.77
2018-03-01T02:24:17.528Z,1010.78
2018-03-01T02:25:17.492Z,1010.72
2018-03-01T02:26:17.449Z,1010.82
2018-03-01T02:27:18.517Z,1010.71
2018-03-01T02:28:17.373Z,1010.68
2018-03-01T02:29:17.338Z,1010.70
2018-03-01T02:30:17.313Z,1010.76
2018-03-01T02:31:17.277Z,1010.70
2018-03-01T02:32:17.244Z,1010.66
2018-03-01T02:33:17.211Z,1010.62
2018-03-01T02:34:17.178Z,1010.67
2018-03-01T02:35:17.149Z,1010.65
2018-03-01T02:36:17.112Z,1010.66
2018-03-01T02:37:17.076Z,1010.62
2018-03-01T02:38:17.048Z,1010.62
2018-03-01T02:39:17.010Z,1010.58
2018-03-01T02:40:16.975Z,1010.55
2018-03-01T02:41:16.946Z,1010.61
2018-03-01T02:42:16.911Z,1010.56
2018-03-01T02:43:16.879Z,1010.60
2018-03-01T02:44:16.848Z,1010.57
2018-03-01T02:45:16.811Z,1010.53
2018-03-01T02:46:16.780Z,1010.52
2018-03-01T02:47:16.742Z,1010.52
2018-03-01T02:48:16.721Z,1010.55
2018-03-01T02:49:16.682Z,1010.50
2018-03-01T02:50:16.648Z,1010.53
2018-03-01T02:51:16.621Z,1010.43
2018-03-01T02:52:16.580Z,1010.43
2018-03-01T02:53:16.556Z,1010.41
2018-03-01T02:54:16.555Z,1010.43
2018-03-01T02:55:16.479Z,1010.47
2018-03-01T02:56:16.447Z,1010.43
2018-03-01T02:57:16.416Z,1010.39
2018-03-01T02:58:16.381Z,1010.39
2018-03-01T02:59:16.350Z,1010.40
2018-03-01T03:00:16.319Z,1010.42
2018-03-01T03:01:16.278Z,1010.33
2018-03-01T03:02:16.248Z,1010.43
2018-03-01T03:03:16.211Z,1010.33
2018-03-01T03:04:16.180Z,1010.31
2018-03-01T03:05:16.145Z,1010.30
2018-03-01T03:06:16.115Z,1010.26
2018-03-01T03:07:16.080Z,1010.32
2018-03-01T03:08:16.048Z,1010.23
2018-03-01T03:09:16.014Z,1010.28
2018-03-01T03:10:15.984Z,1010.24
2018-03-01T03:11:15.948Z,1010.25
2018-03-01T03:12:15.912Z,1010.22
2018-03-01T03:13:15.880Z,1010.21
2018-03-01T03:14:15.852Z,1010.19
2018-03-01T03:15:15.815Z,1010.18
2018-03-01T03:16:15.782Z,1010.16
2018-03-01T03:17:15.749Z,1010.21
2018-03-01T03:18:15.716Z,1010.11
2018-03-01T03:19:15.681Z,1010.24
2018-03-01T03:20:15.647Z,1010.14
2018-03-01T03:21:15.614Z,1010.16
2018-03-01T03:22:15.583Z,1010.18
2018-03-01T03:23:15.548Z,1010.04
2018-03-01T03:24:15.512Z,1010.09
2018-03-01T03:25:15.482Z,1010.10
2018-03-01T03:26:15.447Z,1010.07
2018-03-01T03:27:15.415Z,1010.00
2018-03-01T03:28:15.379Z,1010.02
2018-03-01T03:29:15.348Z,1010.13
2018-03-01T03:30:15.317Z,1010.00
2018-03-01T03:31:15.289Z,1010.05
2018-03-01T03:32:15.268Z,1010.03
2018-03-01T03:33:15.214Z,1010.04
2018-03-01T03:34:15.182Z,1009.95
2018-03-01T03:35:15.146Z,1009.95
2018-03-01T03:36:15.114Z,1009.89
2018-03-01T03:37:15.083Z,1009.92
2018-03-01T03:38:15.049Z,1009.93
2018-03-01T03:39:15.019Z,1009.93
2018-03-01T03:40:14.977Z,1009.88
2018-03-01T03:41:14.949Z,1009.86
2018-03-01T03:42:14.913Z,1009.79
2018-03-01T03:43:14.888Z,1009.89
2018-03-01T03:44:14.852Z,1009.78
2018-03-01T03:45:14.814Z,1009.73
2018-03-01T03:46:14.784Z,1009.79
2018-03-01T03:47:14.748Z,1009.59
2018-03-01T03:48:14.722Z,1009.63
2018-03-01T03:49:14.688Z,1009.73
2018-03-01T03:50:14.650Z,1009.76
2018-03-01T03:51:14.614Z,1009.69
2018-03-01T03:52:14.580Z,1009.83
2018-03-01T03:53:14.551Z,1009.67
2018-03-01T03:54:14.510Z,1009.81
2018-03-01T03:55:14.482Z,1009.79
2018-03-01T03:56:14.448Z,1009.80
2018-03-01T03:57:14.414Z,1009.70
2018-03-01T03:58:14.380Z,1009.81
2018-03-01T03:59:14.351Z,1009.81
2018-03-01T04:00:14.335Z,1009.87
2018-03-01T04:01:14.282Z,1009.85
2018-03-01T04:02:14.247Z,1009.81
2018-03-01T04:03:14.212Z,1009.79
2018-03-01T04:04:14.179Z,1009.79
2018-03-01T04:05:14.147Z,1009.76
2018-03-01T04:06:14.116Z,1009.73
2018-03-01T04:07:14.083Z,1009.70
2018-03-01T04:08:14.046Z,1009.74
2018-03-01T04:09:14.014Z,1009.71
2018-03-01T04:10:13.980Z,1009.71
2018-03-01T04:11:13.946Z,1009.75
2018-03-01T04:12:13.915Z,1009.76
2018-03-01T04:13:13.882Z,1009.77
2018-03-01T04:14:13.850Z,1009.73
2018-03-01T04:15:13.814Z,1009.72
2018-03-01T04:16:13.779Z,1009.68
2018-03-01T04:17:13.747Z,1009.67
2018-03-01T04:18:13.716Z,1009.66
2018-03-01T04:19:13.680Z,1009.61
2018-03-01T04:20:13.647Z,1009.60
2018-03-01T04:21:13.616Z,1009.61
2018-03-01T04:22:13.581Z,1009.53
2018-03-01T04:23:13.548Z,1009.60
2018-03-01T04:24:13.515Z,1009.68
2018-03-01T04:25:13.476Z,1009.64
2018-03-01T04:26:13.448Z,1009.59
2018-03-01T04:27:13.415Z,1009.61
2018-03-01T04:28:13.383Z,1009.64
2018-03-01T04:29:13.349Z,1009.59
2018-03-01T04:30:13.321Z,1009.58
2018-03-01T04:31:13.287Z,1009.60
2018-03-01T04:32:13.247Z,1009.62
2018-03-01T04:33:13.215Z,1009.58
2018-03-01T04:34:13.188Z,1009.68
2018-03-01T04:35:13.150Z,1009.66
2018-03-01T04:36:13.119Z,1009.66
2018-03-01T04:37:13.086Z,1009.65
2018-03-01T04:38:13.053Z,1009.56
2018-03-01T04:39:13.020Z,1009.54
2018-03-01T04:40:12.996Z,1009.52
2018-03-01T04:41:12.951Z,1009.42
2018-03-01T04:42:12.920Z,1009.52
2018-03-01T04:43:12.886Z,1009.61
2018-03-01T04:44:12.850Z,1009.62
2018-03-01T04:45:12.819Z,1009.61
2018-03-01T04:46:12.788Z,1009.58
2018-03-01T04:47:12.754Z,1009.51
2018-03-01T04:48:12.724Z,1009.57
2018-03-01T04:49:12.684Z,1009.59
2018-03-01T04:50:12.656Z,1009.61
2018-03-01T04:51:12.622Z,1009.53
2018-03-01T04:52:12.592Z,1009.55
2018-03-01T04:53:12.565Z,1009.60
2018-03-01T04:54:12.524Z,1009.60
2018-03-01T04:55:12.488Z,1009.53
2018-03-01T04:56:12.454Z,1009.60
2018-03-01T04:57:12.421Z,1009.58
2018-03-01T04:58:12.390Z,1009.70
2018-03-01T04:59:12.357Z,1009.59
2018-03-01T05:00:12.322Z,1009.59
2018-03-01T05:01:12.293Z,1009.62
2018-03-01T05:02:12.258Z,1009.58
2018-03-01T05:03:12.220Z,1009.55
2018-03-01T05:04:12.189Z,1009.58
2018-03-01T05:05:12.156Z,1009.53
2018-03-01T05:06:12.127Z,1009.47
2018-03-01T05:07:12.093Z,1009.41
2018-03-01T05:08:12.061Z,1009.43
2018-03-01T05:09:12.028Z,1009.33
2018-03-01T05:10:11.990Z,1009.26
2018-03-01T05:11:11.968Z,1009.29
2018-03-01T05:12:11.927Z,1009.36
2018-03-01T05:13:11.895Z,1009.20
2018-03-01T05:14:11.862Z,1009.11
2018-03-01T05:15:11.826Z,1009.15
2018-03-01T05:16:11.815Z,1009.04
2018-03-01T05:17:11.765Z,1009.03
2018-03-01T05:18:11.729Z,1009.06
2018-03-01T05:19:11.695Z,1008.98
2018-03-01T05:20:11.662Z,1008.98
2018-03-01T05:21:11.652Z,1008.97
2018-03-01T05:22:11.597Z,1008.98
2018-03-01T05:23:11.561Z,1008.93
2018-03-01T05:24:11.529Z,1009.00
2018-03-01T05:25:11.498Z,1009.02
2018-03-01T05:26:11.467Z,1009.09
2018-03-01T05:27:11.441Z,1008.99
2018-03-01T05:28:11.399Z,1009.07
2018-03-01T05:29:11.369Z,1009.05
2018-03-01T05:30:11.334Z,1008.97
2018-03-01T05:31:11.300Z,1009.12
2018-03-01T05:32:11.269Z,1009.09
2018-03-01T05:33:11.230Z,1009.01
2018-03-01T05:34:11.200Z,1008.97
2018-03-01T05:35:11.273Z,1008.98
2018-03-01T05:36:11.133Z,1008.90
2018-03-01T05:37:11.102Z,1008.86
2018-03-01T05:38:11.070Z,1008.91
2018-03-01T05:39:11.032Z,1008.90
2018-03-01T05:40:10.997Z,1008.81
2018-03-01T05:41:10.972Z,1008.94
2018-03-01T05:42:10.930Z,1008.92
2018-03-01T05:43:10.902Z,1008.92
2018-03-01T05:44:10.873Z,1008.75
2018-03-01T05:45:10.870Z,1008.98
2018-03-01T05:46:10.803Z,1008.83
2018-03-01T05:47:10.768Z,1008.88
2018-03-01T05:48:10.736Z,1008.81
2018-03-01T05:49:10.704Z,1008.78
2018-03-01T05:50:10.673Z,1008.90
2018-03-01T05:51:10.643Z,1008.84
2018-03-01T05:52:10.605Z,1008.84
2018-03-01T05:53:10.569Z,1008.97
2018-03-01T05:54:10.539Z,1008.98
2018-03-01T05:55:10.506Z,1009.00
2018-03-01T05:56:10.472Z,1009.00
2018-03-01T05:57:10.440Z,1008.95
2018-03-01T05:58:10.409Z,1009.01
2018-03-01T05:59:10.374Z,1009.04
2018-03-01T06:00:10.345Z,1009.05
2018-03-01T06:01:10.309Z,1009.07
2018-03-01T06:02:10.273Z,1009.12
2018-03-01T06:03:10.263Z,1009.08
2018-03-01T06:04:10.209Z,1009.10
2018-03-01T06:05:10.177Z,1009.06
2018-03-01T06:06:10.142Z,1009.06
2018-03-01T06:07:10.110Z,1009.09
2018-03-01T06:08:10.080Z,1009.04
2018-03-01T06:09:10.040Z,1009.11
2018-03-01T06:10:10.013Z,1009.11
2018-03-01T06:11:09.979Z,1009.11
2018-03-01T06:12:09.946Z,1009.22
2018-03-01T06:13:09.914Z,1009.20
2018-03-01T06:14:09.885Z,1009.20
2018-03-01T06:15:09.869Z,1009.28
2018-03-01T06:16:09.815Z,1009.24
2018-03-01T06:17:09.781Z,1009.26
2018-03-01T06:18:09.752Z,1009.27
2018-03-01T06:19:09.715Z,1009.31
2018-03-01T06:20:09.683Z,1009.33
2018-03-01T06:21:09.653Z,1009.19
2018-03-01T06:22:09.620Z,1009.34
2018-03-01T06:23:09.590Z,1009.38
2018-03-01T06:24:09.551Z,1009.38
2018-03-01T06:25:09.522Z,1009.42
2018-03-01T06:26:09.488Z,1009.41
2018-03-01T06:27:09.457Z,1009.35
2018-03-01T06:28:09.424Z,1009.43
2018-03-01T06:29:09.438Z,1009.41
2018-03-01T06:30:09.356Z,1009.43
2018-03-01T06:31:09.323Z,1009.41
2018-03-01T06:32:09.291Z,1009.39
2018-03-01T06:33:09.269Z,1009.40
2018-03-01T06:34:09.231Z,1009.36
2018-03-01T06:35:09.193Z,1009.39
2018-03-01T06:36:09.166Z,1009.38
2018-03-01T06:37:09.124Z,1009.33
2018-03-01T06:38:09.095Z,1009.39
2018-03-01T06:39:09.059Z,1009.34
2018-03-01T06:40:09.029Z,1009.32
2018-03-01T06:41:09.002Z,1009.31
2018-03-01T06:42:08.964Z,1009.29
2018-03-01T06:43:08.930Z,1009.31
2018-03-01T06:44:08.897Z,1009.32
2018-03-01T06:45:08.867Z,1009.15
2018-03-01T06:46:08.838Z,1009.26
2018-03-01T06:47:08.799Z,1009.28
2018-03-01T06:48:08.773Z,1009.30
2018-03-01T06:49:08.782Z,1009.17
2018-03-01T06:50:08.703Z,1009.10
2018-03-01T06:51:08.667Z,1009.10
2018-03-01T06:52:08.642Z,1009.10
2018-03-01T06:53:08.602Z,1009.13
2018-03-01T06:54:08.586Z,1008.93
2018-03-01T06:55:08.539Z,1009.00
2018-03-01T06:56:08.505Z,1009.02
2018-03-01T06:57:08.478Z,1008.93
2018-03-01T06:58:08.441Z,1008.96
2018-03-01T06:59:08.402Z,1008.87
2018-03-01T07:00:08.372Z,1008.93
2018-03-01T07:01:08.343Z,1008.89
2018-03-01T07:02:08.309Z,1008.76
2018-03-01T07:03:08.277Z,1008.86
2018-03-01T07:04:08.241Z,1008.73
2018-03-01T07:05:08.209Z,1008.70
2018-03-01T07:06:08.181Z,1008.75
2018-03-01T07:07:08.144Z,1008.72
2018-03-01T07:08:08.112Z,1008.70
2018-03-01T07:09:08.080Z,1008.78
2018-03-01T07:10:08.047Z,1008.73
2018-03-01T07:11:08.022Z,1008.75
2018-03-01T07:12:07.981Z,1008.73
2018-03-01T07:13:07.950Z,1008.75
2018-03-01T07:14:07.916Z,1008.72
2018-03-01T07:15:07.884Z,1008.60
2018-03-01T07:16:07.851Z,1008.66
2018-03-01T07:17:07.824Z,1008.51
2018-03-01T07:18:07.789Z,1008.47
2018-03-01T07:19:07.756Z,1008.58
2018-03-01T07:20:07.720Z,1008.53
2018-03-01T07:21:07.685Z,1008.45
2018-03-01T07:22:07.660Z,1008.48
2018-03-01T07:23:07.617Z,1008.33
2018-03-01T07:24:07.591Z,1008.41
2018-03-01T07:25:07.556Z,1008.41
2018-03-01T07:26:07.524Z,1008.47
2018-03-01T07:27:07.492Z,1008.33
2018-03-01T07:28:07.461Z,1008.43
2018-03-01T07:29:07.428Z,1008.44
2018-03-01T07:30:07.396Z,1008.48
2018-03-01T07:31:07.361Z,1008.53
2018-03-01T07:32:07.328Z,1008.57
2018-03-01T07:33:07.294Z,1008.52
2018-03-01T07:34:07.262Z,1008.50
2018-03-01T07:35:07.230Z,1008.59
2018-03-01T07:36:07.197Z,1008.53
2018-03-01T07:37:07.166Z,1008.59
2018-03-01T07:38:07.141Z,1008.58
2018-03-01T07:39:07.099Z,1008.57
2018-03-01T07:40:07.067Z,1008.55
2018-03-01T07:41:07.032Z,1008.56
2018-03-01T07:42:07.004Z,1008.34
2018-03-01T07:43:06.973Z,1008.57
2018-03-01T07:44:06.943Z,1008.44
2018-03-01T07:45:06.904Z,1008.51
2018-03-01T07:46:06.868Z,1008.50
2018-03-01T07:47:06.858Z,1008.50
2018-03-01T07:48:06.807Z,1008.52
2018-03-01T07:49:06.768Z,1008.43
2018-03-01T07:50:06.741Z,1008.44
2018-03-01T07:51:06.738Z,1008.53
2018-03-01T07:52:06.675Z,1008.50
2018-03-01T07:53:06.643Z,1008.39
2018-03-01T07:54:06.614Z,1008.42
2018-03-01T07:55:06.588Z,1008.43
2018-03-01T07:56:06.549Z,1008.39
2018-03-01T07:57:06.513Z,1008.43
2018-03-01T07:58:06.486Z,1008.48
2018-03-01T07:59:06.443Z,1008.32
2018-03-01T08:00:06.414Z,1008.47
2018-03-01T08:01:06.385Z,1008.42
2018-03-01T08:02:06.351Z,1008.43
2018-03-01T08:03:06.320Z,1008.46
2018-03-01T08:04:06.291Z,1008.31
2018-03-01T08:05:06.254Z,1008.39
2018-03-01T08:06:06.223Z,1008.37
2018-03-01T08:07:06.189Z,1008.42
2018-03-01T08:08:06.157Z,1008.43
2018-03-01T08:09:06.127Z,1008.40
2018-03-01T08:10:06.094Z,1008.29
2018-03-01T08:11:06.059Z,1008.45
2018-03-01T08:12:06.032Z,1008.48
2018-03-01T08:13:06.008Z,1008.49
2018-03-01T08:14:05.966Z,1008.55
2018-03-01T08:15:05.932Z,1008.46
2018-03-01T08:16:05.900Z,1008.45
2018-03-01T08:17:05.867Z,1008.40
2018-03-01T08:18:05.837Z,1008.44
2018-03-01T08:19:05.802Z,1008.35
2018-03-01T08:20:05.774Z,1008.42
2018-03-01T08:21:05.755Z,1008.48
2018-03-01T08:22:05.706Z,1008.47
2018-03-01T08:23:05.675Z,1008.47
2018-03-01T08:24:05.644Z,1008.43
2018-03-01T08:25:05.613Z,1008.45
2018-03-01T08:26:05.578Z,1008.55
2018-03-01T08:27:05.546Z,1008.50
2018-03-01T08:28:05.518Z,1008.53
2018-03-01T08:29:05.481Z,1008.41
2018-03-01T08:30:05.527Z,1008.47
2018-03-01T08:31:05.418Z,1008.45
2018-03-01T08:32:05.397Z,1008.35
2018-03-01T08:33:05.358Z,1008.44
2018-03-01T08:34:05.322Z,1008.43
2018-03-01T08:35:05.290Z,1008.42
2018-03-01T08:36:05.261Z,1008.19
2018-03-01T08:37:05.231Z,1008.38
2018-03-01T08:38:05.198Z,1008.37
2018-03-01T08:39:05.168Z,1008.25
2018-03-01T08:40:05.133Z,1008.27
2018-03-01T08:41:05.104Z,1008.22
2018-03-01T08:42:05.066Z,1008.20
2018-03-01T08:43:05.037Z,1008.30
2018-03-01T08:44:05.007Z,1008.22
2018-03-01T08:45:04.980Z,1008.32
2018-03-01T08:46:04.941Z,1008.24
2018-03-01T08:47:04.915Z,1008.21
2018-03-01T08:48:04.880Z,1008.26
2018-03-01T08:49:04.853Z,1008.19
2018-03-01T08:50:04.815Z,1008.20
2018-03-01T08:51:04.786Z,1008.18
2018-03-01T08:52:04.754Z,1008.22
2018-03-01T08:53:04.724Z,1008.04
2018-03-01T08:54:04.695Z,1008.19
2018-03-01T08:55:04.662Z,1008.03
2018-03-01T08:56:04.625Z,1008.01
2018-03-01T08:57:04.599Z,1008.13
2018-03-01T08:58:04.564Z,1008.01
2018-03-01T08:59:04.535Z,1008.03
2018-03-01T09:00:04.505Z,1008.03
2018-03-01T09:01:04.473Z,1007.95
2018-03-01T09:02:04.439Z,1007.89
2018-03-01T09:03:04.408Z,1007.92
2018-03-01T09:04:04.381Z,1007.99
2018-03-01T09:05:04.352Z,1007.83
2018-03-01T09:06:04.312Z,1007.83
2018-03-01T09:07:04.283Z,1007.90
2018-03-01T09:08:04.255Z,1007.80
2018-03-01T09:09:04.222Z,1007.86
2018-03-01T09:10:04.189Z,1007.70
2018-03-01T09:11:04.161Z,1007.77
2018-03-01T09:12:04.129Z,1007.79
2018-03-01T09:13:04.100Z,1007.73
2018-03-01T09:14:04.072Z,1007.67
2018-03-01T09:15:04.029Z,1007.65
2018-03-01T09:16:04.007Z,1007.59
2018-03-01T09:17:03.975Z,1007.61
2018-03-01T09:18:03.947Z,1007.52
2018-03-01T09:19:03.913Z,1007.32
2018-03-01T09:20:03.884Z,1007.42
2018-03-01T09:21:03.849Z,1007.46
2018-03-01T09:22:03.823Z,1007.53
2018-03-01T09:23:03.789Z,1007.51
2018-03-01T09:24:03.759Z,1007.52
2018-03-01T09:25:03.733Z,1007.46
2018-03-01T09:26:03.693Z,1007.61
2018-03-01T09:27:03.666Z,1007.55
2018-03-01T09:28:03.637Z,1007.75
2018-03-01T09:29:03.603Z,1007.67
2018-03-01T09:30:03.579Z,1007.74
2018-03-01T09:31:03.544Z,1007.79
2018-03-01T09:32:03.514Z,1007.84
2018-03-01T09:33:03.485Z,1007.70
2018-03-01T09:34:03.455Z,1007.77
2018-03-01T09:35:03.421Z,1007.51
2018-03-01T09:36:03.389Z,1007.72
2018-03-01T09:37:03.358Z,1007.66
2018-03-01T09:38:03.333Z,1007.67
2018-03-01T09:39:03.301Z,1007.72
2018-03-01T09:40:03.267Z,1007.82
2018-03-01T09:41:03.240Z,1007.74
2018-03-01T09:42:03.208Z,1007.69
2018-03-01T09:43:03.186Z,1007.73
2018-03-01T09:44:03.156Z,1007.66
2018-03-01T09:45:03.122Z,1007.69
2018-03-01T09:46:03.096Z,1007.55
2018-03-01T09:47:03.063Z,1007.66
2018-03-01T09:48:03.029Z,1007.66
2018-03-01T09:49:03.005Z,1007.72
2018-03-01T09:50:02.977Z,1007.66
2018-03-01T09:51:02.948Z,1007.58
2018-03-01T09:52:02.917Z,1007.68
2018-03-01T09:53:02.897Z,1007.64
2018-03-01T09:54:02.862Z,1007.57
2018-03-01T09:55:02.831Z,1007.61
2018-03-01T09:56:02.799Z,1007.62
2018-03-01T09:57:02.776Z,1007.60
2018-03-01T09:58:02.767Z,1007.44
2018-03-01T09:59:02.760Z,1007.52
2018-03-01T10:00:02.692Z,1007.56
2018-03-01T10:01:02.672Z,1007.72
2018-03-01T10:02:02.636Z,1007.57
2018-03-01T10:03:02.606Z,1007.68
2018-03-01T10:04:02.580Z,1007.53
2018-03-01T10:05:02.553Z,1007.59
2018-03-01T10:06:02.525Z,1007.73
2018-03-01T10:07:02.534Z,1007.59
2018-03-01T10:08:02.471Z,1007.62
2018-03-01T10:09:02.441Z,1007.63
2018-03-01T10:10:02.416Z,1007.68
2018-03-01T10:11:02.389Z,1007.69
2018-03-01T10:12:02.360Z,1007.64
2018-03-01T10:13:02.336Z,1007.57
2018-03-01T10:14:02.310Z,1007.66
2018-03-01T10:15:02.282Z,1007.62
2018-03-01T10:16:02.256Z,1007.76
2018-03-01T10:17:02.257Z,1007.65
2018-03-01T10:18:02.286Z,1007.62
2018-03-01T10:19:02.194Z,1007.66
2018-03-01T10:20:02.189Z,1007.67
2018-03-01T10:21:02.120Z,1007.63
2018-03-01T10:22:02.094Z,1007.61
2018-03-01T10:23:02.068Z,1007.62
2018-03-01T10:24:02.041Z,1007.66
2018-03-01T10:25:02.027Z,1007.59
2018-03-01T10:26:02.000Z,1007.49
2018-03-01T10:27:01.965Z,1007.52
2018-03-01T10:28:01.952Z,1007.54
2018-03-01T10:29:01.914Z,1007.65
2018-03-01T10:30:01.892Z,1007.65
2018-03-01T10:31:01.864Z,1007.62
2018-03-01T10:32:01.838Z,1007.57
2018-03-01T10:33:01.812Z,1007.49
2018-03-01T10:34:01.821Z,1007.35
2018-03-01T10:35:01.765Z,1007.29
2018-03-01T10:36:01.742Z,1007.31
2018-03-01T10:37:01.720Z,1007.30
2018-03-01T10:38:01.698Z,1007.28
2018-03-01T10:39:01.669Z,1007.28
2018-03-01T10:40:01.644Z,1007.34
2018-03-01T10:41:01.621Z,1007.28
2018-03-01T10:42:01.598Z,1007.05
2018-03-01T10:43:01.573Z,1007.31
2018-03-01T10:44:01.549Z,1007.18
2018-03-01T10:45:01.526Z,1007.20
2018-03-01T10:46:01.500Z,1007.11
2018-03-01T10:47:01.479Z,1007.20
2018-03-01T10:48:01.458Z,1007.11
2018-03-01T10:49:01.442Z,1007.02
2018-03-01T10:50:01.414Z,1007.10
2018-03-01T10:51:01.386Z,1007.00
2018-03-01T10:52:01.369Z,1006.99
2018-03-01T10:53:01.341Z,1006.95
2018-03-01T10:54:01.317Z,1006.82
2018-03-01T10:55:01.295Z,1006.89
2018-03-01T10:56:01.272Z,1006.90
2018-03-01T10:57:01.248Z,1006.88
2018-03-01T10:58:01.238Z,1006.86
2018-03-01T10:59:01.204Z,1006.92
2018-03-01T11:00:01.183Z,1006.91
2018-03-01T11:01:01.159Z,1006.91
2018-03-01T11:02:01.136Z,1006.86
2018-03-01T11:03:01.115Z,1006.54
2018-03-01T11:04:01.092Z,1006.60
2018-03-01T11:05:01.069Z,1006.79
2018-03-01T11:06:01.047Z,1006.61
2018-03-01T11:07:01.023Z,1006.63
2018-03-01T11:08:00.998Z,1006.53
2018-03-01T11:09:00.987Z,1006.44
2018-03-01T11:10:00.955Z,1006.57
2018-03-01T11:11:00.934Z,1006.45
2018-03-01T11:12:00.909Z,1006.44
2018-03-01T11:13:00.888Z,1006.48
2018-03-01T11:14:00.868Z,1006.34
2018-03-01T11:15:00.841Z,1006.43
2018-03-01T11:16:00.819Z,1006.35
2018-03-01T11:17:00.801Z,1006.32
2018-03-01T11:18:00.776Z,1006.32
2018-03-01T11:19:00.756Z,1006.35
2018-03-01T11:20:00.730Z,1006.29
2018-03-01T11:21:00.714Z,1006.31
2018-03-01T11:22:00.690Z,1006.24
2018-03-01T11:23:00.665Z,1006.19
2018-03-01T11:24:00.644Z,1006.25
2018-03-01T11:25:00.621Z,1006.29
2018-03-01T11:26:00.612Z,1006.23
2018-03-01T11:27:00.582Z,1006.22
2018-03-01T11:28:00.560Z,1006.23
2018-03-01T11:29:00.538Z,1006.26
2018-03-01T11:30:00.517Z,1006.24
2018-03-01T11:31:00.493Z,1006.27
2018-03-01T11:32:00.478Z,1006.13
2018-03-01T11:33:00.458Z,1006.01
2018-03-01T11:34:00.435Z,1006.20
2018-03-01T11:35:00.453Z,1006.10
2018-03-01T11:36:00.395Z,1006.18
2018-03-01T11:37:00.384Z,1006.08
2018-03-01T11:38:00.353Z,1006.12
2018-03-01T11:39:00.331Z,1005.99
2018-03-01T11:40:00.314Z,1006.11
2018-03-01T11:41:00.292Z,1006.06
2018-03-01T11:42:00.274Z,1006.14
2018-03-01T11:43:00.249Z,1006.02
2018-03-01T11:44:00.231Z,1006.11
2018-03-01T11:45:00.209Z,1006.10
2018-03-01T11:46:00.184Z,1006.07
2018-03-01T11:47:00.183Z,1006.29
2018-03-01T11:48:00.147Z,1006.13
2018-03-01T11:49:00.126Z,1006.09
2018-03-01T11:50:00.104Z,1006.04
2018-03-01T11:51:00.083Z,1006.05
2018-03-01T11:52:00.062Z,1006.02
2018-03-01T11:53:00.043Z,1005.87
2018-03-01T11:54:00.024Z,1005.97
2018-03-01T11:55:00.001Z,1005.97
2018-03-01T11:55:59.983Z,1005.85
2018-03-01T11:56:59.959Z,1005.94
2018-03-01T11:57:59.940Z,1005.91
2018-03-01T11:58:59.933Z,1005.86
2018-03-01T11:59:59.896Z,1005.86
2018-03-01T12:00:59.898Z,1005.84
2018-03-01T12:01:59.853Z,1005.77
2018-03-01T12:02:59.835Z,1005.80
2018-03-01T12:03:59.812Z,1005.74
2018-03-01T12:04:59.794Z,1005.71